Mountain Home Air Force Base
KMUO : now visible

Airfield :











YOU CAN JOIN US ON...

 
LOGIN :

Register | Disclaimer

   EN    FR    IT 

 









Legend :    VFR   Marginal VFR   IFR   Intensive IFR   Very Intensive IFR
Visi :
Ceiling :
>= 8 km
>= 3000ft
5 to 8 km
1000 to 3000 ft
1500m to 5 km
500 to 1000 ft
800 to 1500m
200 to 500 ft
< 800m
< 200 ft
Symbols :   Thunderstorms  Fog  Heavy snow  Heavy precipitations  Wind > 20 kt






- Airport Elevation : 2996 ft


KMUO - Mountain Home Air Force Base

CURRENT METAR :
  • 290158Z AUTO 30007KT 10SM CLR 10/M04 A3021 RMK AO2 SLP246 T00951045 $

EXPIRED METARs :
  • 290058Z AUTO 30007KT 10SM CLR 13/M04 A3020 RMK AO2 SLP241 T01261037 $
  • 282358Z AUTO 31012KT 10SM CLR 17/M03 A3020 RMK AO2 SLP236 T01731029 10184 20083 56008 $

TAF TAF KMUO
Valid from the 29 at 02:00 until the 30 at 08:00 UTC


290200Z 2902/3008 31010KT 9999 SKC QNH3016INS
BECMG 2905/2906 VRB06KT 9999 FEW120 SCT200 QNH3020INS
BECMG 2922/2923 31010G15KT 9999 FEW150 SCT200 QNH3016INS TX18/2922Z TNM01/2913Z
KZLC FIR / North America



MET'MAP, your aeronautical weather chart ! - Copyright ORBIFLY December 2007 - Disclaimer

ORBIFLY MET'MAP TEAM :

Programming & Development : Alexandra Zaïnal
Concept & original design : Baudouin d'Aumeries
Assistance for programming : Marc-Olivier Méhu
Technical & hardware support : Manuel Goepfert

Contact : metmap@orbifly.com




SOURCES & CREDITS :

   NOAA       Earth
Advisory